createdAt,value
2023-05-15T00:03:18.836Z,4.40
2023-05-15T00:08:24.377Z,4.77
2023-05-15T00:13:29.610Z,4.97
2023-05-15T00:18:34.918Z,4.17
2023-05-15T00:23:40.118Z,3.77
2023-05-15T00:28:45.154Z,4.20
2023-05-15T00:33:50.309Z,3.80
2023-05-15T00:38:55.588Z,4.00
2023-05-15T00:44:03.361Z,3.73
2023-05-15T00:49:10.909Z,3.47
2023-05-15T00:54:16.394Z,3.70
2023-05-15T00:59:23.556Z,3.27
2023-05-15T01:04:29.493Z,3.40
2023-05-15T01:09:36.732Z,4.30
2023-05-15T01:14:42.069Z,4.17
2023-05-15T01:19:50.106Z,3.90
2023-05-15T01:25:04.406Z,3.50
2023-05-15T01:30:15.408Z,3.10
2023-05-15T01:35:26.588Z,3.60
2023-05-15T01:40:31.954Z,3.20
2023-05-15T01:45:39.781Z,3.90
2023-05-15T01:50:46.959Z,3.87
2023-05-15T01:55:53.840Z,3.60
2023-05-15T02:01:01.435Z,3.83
2023-05-15T02:06:08.609Z,6.27
2023-05-15T02:11:14.940Z,5.10
2023-05-15T02:16:21.042Z,3.90
2023-05-15T02:21:26.835Z,3.33
2023-05-15T02:26:53.081Z,3.47
2023-05-15T02:32:07.264Z,2.90
2023-05-15T02:37:15.382Z,3.60
2023-05-15T02:42:20.668Z,3.17
2023-05-15T02:47:27.639Z,4.30
2023-05-15T02:52:35.209Z,5.13
2023-05-15T02:57:40.458Z,3.60
2023-05-15T03:02:45.652Z,3.00
2023-05-15T03:07:50.787Z,3.07
2023-05-15T03:13:00.362Z,3.60
2023-05-15T03:18:06.017Z,3.10
2023-05-15T03:23:11.342Z,3.97
2023-05-15T03:28:16.483Z,3.13
2023-05-15T03:33:21.777Z,3.10
2023-05-15T03:38:26.981Z,3.40
2023-05-15T03:43:32.114Z,3.23
2023-05-15T03:48:37.285Z,3.63
2023-05-15T03:53:42.590Z,3.37
2023-05-15T03:58:47.740Z,2.90
2023-05-15T04:03:53.615Z,2.77
2023-05-15T04:08:58.980Z,3.23
2023-05-15T04:14:04.169Z,2.90
2023-05-15T04:19:09.735Z,3.27
2023-05-15T04:24:14.966Z,2.60
2023-05-15T04:29:20.065Z,2.57
2023-05-15T04:34:25.361Z,3.07
2023-05-15T04:39:31.234Z,3.30
2023-05-15T04:44:36.519Z,3.40
2023-05-15T04:49:44.362Z,3.00
2023-05-15T04:54:51.240Z,3.17
2023-05-15T04:59:56.459Z,3.13
2023-05-15T05:05:02.568Z,3.53
2023-05-15T05:10:09.252Z,2.87
2023-05-15T05:15:14.571Z,3.07
2023-05-15T05:20:19.770Z,3.57
2023-05-15T05:25:27.657Z,3.40
2023-05-15T05:30:33.017Z,3.67
2023-05-15T05:35:38.336Z,2.90
2023-05-15T05:40:43.829Z,3.17
2023-05-15T05:45:49.226Z,2.57
2023-05-15T05:50:54.453Z,2.90
2023-05-15T05:55:59.796Z,3.37
2023-05-15T06:01:06.125Z,3.10
2023-05-15T06:06:12.424Z,3.30
2023-05-15T06:11:21.929Z,2.70
2023-05-15T06:16:26.311Z,3.30
2023-05-15T06:21:32.190Z,3.23
2023-05-15T06:26:38.805Z,3.20
2023-05-15T06:31:45.077Z,2.60
2023-05-15T06:36:50.505Z,3.77
2023-05-15T06:41:57.325Z,4.27
2023-05-15T06:47:02.627Z,3.63
2023-05-15T06:52:08.152Z,4.10
2023-05-15T06:57:13.431Z,4.13
2023-05-15T07:02:18.741Z,4.07
2023-05-15T07:07:24.721Z,5.63
2023-05-15T07:12:30.022Z,4.00
2023-05-15T07:17:35.308Z,4.13
2023-05-15T07:22:51.893Z,3.77
2023-05-15T07:27:47.948Z,5.20
2023-05-15T07:32:53.128Z,4.03
2023-05-15T07:37:58.296Z,4.10
2023-05-15T07:43:03.650Z,4.00
2023-05-15T07:48:19.732Z,3.77
2023-05-15T07:53:25.638Z,5.03
2023-05-15T07:58:30.776Z,3.83
2023-05-15T08:03:36.065Z,4.27
2023-05-15T08:08:41.451Z,4.60
2023-05-15T08:13:46.748Z,4.47
2023-05-15T08:18:53.727Z,3.90
2023-05-15T08:24:00.672Z,4.40
2023-05-15T08:29:05.960Z,4.17
2023-05-15T08:34:11.405Z,3.63
2023-05-15T08:39:16.698Z,3.40
2023-05-15T08:44:23.717Z,2.50
2023-05-15T08:49:49.978Z,3.60
2023-05-15T08:54:55.600Z,3.63
2023-05-15T09:00:01.397Z,2.80
2023-05-15T09:05:07.518Z,3.50
2023-05-15T09:10:14.144Z,2.73
2023-05-15T09:15:22.689Z,3.87
2023-05-15T09:20:39.123Z,3.50
2023-05-15T09:25:48.639Z,3.80
2023-05-15T09:31:00.283Z,3.43
2023-05-15T09:36:07.658Z,3.90
2023-05-15T09:41:12.977Z,3.60
2023-05-15T09:46:18.376Z,4.30
2023-05-15T09:51:23.766Z,4.03
2023-05-15T09:56:28.963Z,3.90
2023-05-15T10:01:36.697Z,4.37
2023-05-15T10:06:49.983Z,4.17
2023-05-15T10:11:55.507Z,4.63
2023-05-15T10:17:01.090Z,4.17
2023-05-15T10:22:07.934Z,4.73
2023-05-15T10:27:14.741Z,3.87
2023-05-15T10:32:20.948Z,3.67
2023-05-15T10:37:27.697Z,4.50
2023-05-15T10:42:34.359Z,4.73
2023-05-15T10:47:42.401Z,4.30
2023-05-15T10:52:49.901Z,5.07
2023-05-15T10:57:55.147Z,4.87
2023-05-15T11:03:02.431Z,5.60
2023-05-15T11:08:21.178Z,4.90
2023-05-15T11:13:26.969Z,4.87
2023-05-15T11:18:32.309Z,4.57
2023-05-15T11:23:42.032Z,5.37
2023-05-15T11:28:47.492Z,3.80
2023-05-15T11:33:52.820Z,5.40
2023-05-15T11:38:58.131Z,5.40
2023-05-15T11:44:03.521Z,5.10
2023-05-15T11:49:11.546Z,3.80
2023-05-15T11:54:18.398Z,4.30
2023-05-15T11:59:25.199Z,5.00
2023-05-15T12:04:32.477Z,4.53
2023-05-15T12:09:39.364Z,4.57
2023-05-15T12:14:44.590Z,3.90
2023-05-15T12:19:51.002Z,3.93
2023-05-15T12:25:05.990Z,3.50
2023-05-15T12:30:12.503Z,3.03
2023-05-15T12:35:17.843Z,3.90
2023-05-15T12:40:24.612Z,3.87
2023-05-15T12:45:33.533Z,3.23
2023-05-15T12:50:39.159Z,2.50
2023-05-15T12:55:46.744Z,2.80
2023-05-15T13:00:53.458Z,3.50
2023-05-15T13:05:59.284Z,3.20
2023-05-15T13:11:04.447Z,3.40
2023-05-15T13:16:21.549Z,3.03
2023-05-15T13:21:28.629Z,2.90
2023-05-15T13:26:33.855Z,3.80
2023-05-15T13:31:39.257Z,3.10
2023-05-15T13:36:44.515Z,3.50
2023-05-15T13:41:49.832Z,3.27
2023-05-15T13:46:55.044Z,3.40
2023-05-15T13:52:00.383Z,3.53
2023-05-15T13:57:06.190Z,5.70
2023-05-15T14:02:11.819Z,4.40
2023-05-15T14:07:17.062Z,20.13
2023-05-15T14:12:22.238Z,3.50
2023-05-15T14:17:28.323Z,3.93
2023-05-15T14:22:33.796Z,3.47
2023-05-15T14:27:39.011Z,3.77
2023-05-15T14:32:44.191Z,5.13
2023-05-15T14:37:49.468Z,9.53
2023-05-15T14:42:54.731Z,10.10
2023-05-15T14:47:59.940Z,6.33
2023-05-15T14:53:05.226Z,7.53
2023-05-15T14:58:11.989Z,6.17
2023-05-15T15:03:17.306Z,7.33
2023-05-15T15:08:22.812Z,7.53
2023-05-15T15:13:29.923Z,9.77
2023-05-15T15:18:35.221Z,24.67
2023-05-15T15:23:40.551Z,10.77
2023-05-15T15:28:45.798Z,8.93
2023-05-15T15:33:51.251Z,8.07
2023-05-15T15:38:56.338Z,11.43
2023-05-15T15:44:01.512Z,8.00
2023-05-15T15:49:07.709Z,7.53
2023-05-15T15:54:12.938Z,7.77
2023-05-15T15:59:18.390Z,12.97
2023-05-15T16:04:23.518Z,11.60
2023-05-15T16:09:28.793Z,8.37
2023-05-15T16:14:34.125Z,12.53
2023-05-15T16:19:39.445Z,9.10
2023-05-15T16:24:44.729Z,5.33
2023-05-15T16:29:49.816Z,5.27
2023-05-15T16:34:54.922Z,5.60
2023-05-15T16:40:00.453Z,5.73
2023-05-15T16:45:07.238Z,6.40
2023-05-15T16:50:12.578Z,6.47
2023-05-15T16:55:19.548Z,5.73
2023-05-15T17:00:25.493Z,5.93
2023-05-15T17:05:32.986Z,7.40
2023-05-15T17:10:38.270Z,7.57
2023-05-15T17:15:43.559Z,7.07
2023-05-15T17:20:48.803Z,14.17
2023-05-15T17:25:54.153Z,7.37
2023-05-15T17:30:59.329Z,10.87
2023-05-15T17:36:04.758Z,8.77
2023-05-15T17:41:09.974Z,6.00
2023-05-15T17:46:15.264Z,7.07
2023-05-15T17:51:20.744Z,9.30
2023-05-15T17:56:27.829Z,6.97
2023-05-15T18:01:33.063Z,6.43
2023-05-15T18:06:38.876Z,8.40
2023-05-15T18:11:44.088Z,6.07
2023-05-15T18:16:49.501Z,6.63
2023-05-15T18:21:54.867Z,5.67
2023-05-15T18:27:00.028Z,6.80
2023-05-15T18:32:05.396Z,9.00
2023-05-15T18:37:10.781Z,5.60
2023-05-15T18:42:34.138Z,4.87
2023-05-15T18:47:40.107Z,5.37
2023-05-15T18:52:45.542Z,6.60
2023-05-15T18:57:50.631Z,6.37
2023-05-15T19:02:56.371Z,7.87
2023-05-15T19:08:03.239Z,7.30
2023-05-15T19:13:08.456Z,10.20
2023-05-15T19:18:13.738Z,12.27
2023-05-15T19:23:20.826Z,11.87
2023-05-15T19:28:26.278Z,10.47
2023-05-15T19:33:31.605Z,13.40
2023-05-15T19:38:36.943Z,9.53
2023-05-15T19:43:43.762Z,7.20
2023-05-15T19:48:49.152Z,11.77
2023-05-15T19:53:54.317Z,8.03
2023-05-15T19:59:00.742Z,7.87
2023-05-15T20:04:06.586Z,8.73
2023-05-15T20:09:12.428Z,7.70
2023-05-15T20:14:18.075Z,8.10
2023-05-15T20:19:25.722Z,8.23
2023-05-15T20:24:32.457Z,8.93
2023-05-15T20:29:38.083Z,8.10
2023-05-15T20:34:44.977Z,7.23
2023-05-15T20:39:50.293Z,7.40
2023-05-15T20:44:55.953Z,7.27
2023-05-15T20:50:01.327Z,6.27
2023-05-15T20:55:09.588Z,6.03
2023-05-15T21:00:17.471Z,6.87
2023-05-15T21:05:23.201Z,5.50
2023-05-15T21:10:28.907Z,5.10
2023-05-15T21:15:34.290Z,5.13
2023-05-15T21:20:42.174Z,3.93
2023-05-15T21:25:47.601Z,4.93
2023-05-15T21:30:52.928Z,4.33
2023-05-15T21:35:58.211Z,4.50
2023-05-15T21:41:03.551Z,5.30
2023-05-15T21:46:08.876Z,4.50
2023-05-15T21:51:14.275Z,5.90
2023-05-15T21:56:19.428Z,5.47
2023-05-15T22:01:24.976Z,4.17
2023-05-15T22:06:31.217Z,4.83
2023-05-15T22:11:37.047Z,4.17
2023-05-15T22:16:42.290Z,4.20
2023-05-15T22:21:47.671Z,5.13
2023-05-15T22:26:52.945Z,4.93
2023-05-15T22:31:58.332Z,4.70
2023-05-15T22:37:03.882Z,4.90
2023-05-15T22:42:09.188Z,5.27
2023-05-15T22:47:14.294Z,5.73
2023-05-15T22:52:20.083Z,5.63
2023-05-15T22:57:27.011Z,9.93
2023-05-15T23:02:32.471Z,9.07
2023-05-15T23:07:38.393Z,6.10
2023-05-15T23:12:43.720Z,6.13
2023-05-15T23:17:49.047Z,7.30
2023-05-15T23:22:54.383Z,5.80
2023-05-15T23:27:59.726Z,5.67
2023-05-15T23:33:05.023Z,6.47
2023-05-15T23:38:10.399Z,5.53
2023-05-15T23:43:16.550Z,5.23
2023-05-15T23:48:21.784Z,5.50
2023-05-15T23:53:27.094Z,5.07
2023-05-15T23:58:32.355Z,4.93
